Terminal Aerodrome Forecast
Issued by NWS

Home | Current Version | Previous Version | Text Only | Print | Product List | Glossary On
Versions: 1 2 3 4 5 6 7 8 9 10 11 12 13 14 15 16 17 18 19 20 21 22 23 24 25 26 27 28 29 30 31 32 33 34 35
000
FTUS41 KOKX 211140
TAFTEB
TAF
KTEB 211140Z 2112/2218 21005KT 4SM BR BKN007
      TEMPO 2114/2115 P6SM NSW BKN010
     FM211500 23010G16KT P6SM SCT015 SCT035
     FM211800 24012G18KT P6SM SCT035 BKN250
     FM212100 20008KT P6SM SCT035 BKN100
     FM220200 34010G16KT P6SM VCSH BKN035
     FM220500 36005KT P6SM BKN040
     FM221500 04008KT P6SM VCSH BKN030=

USA.gov is the U.S. government's official web portal to all federal, state and local government web resources and services.